Time;durP1;ratioP1;P1;durP2;ratioP2;P2;SDS_P1;SDS_P2;PMS_P1;PMS_P2;Temp;Humidity;BMP_temperature;BMP_pressure;BME280_temperature;BME280_humidity;BME280_pressure;Samples;Min_cycle;Max_cycle;Signal;HPM_P1;HPM_P2
2022/08/28 00:01:50;;;;;;;7.13;4.37;;;18.30;99.90;;;;;;5046718;28;20533;-55
2022/08/28 00:04:17;;;;;;;7.20;4.70;;;18.20;99.90;;;;;;5050040;28;21025;-55
2022/08/28 00:06:43;;;;;;;9.03;4.40;;;18.20;99.90;;;;;;5046120;28;20481;-54
2022/08/28 00:09:11;;;;;;;14.47;5.80;;;18.20;99.90;;;;;;5044238;28;20469;-55
2022/08/28 00:11:37;;;;;;;7.70;5.50;;;18.20;99.90;;;;;;5047017;28;20458;-55
2022/08/28 00:14:08;;;;;;;10.30;5.10;;;18.20;99.90;;;;;;5049264;28;20943;-55
2022/08/28 00:16:35;;;;;;;6.80;5.13;;;18.20;99.90;;;;;;5043688;28;20557;-55
2022/08/28 00:19:03;;;;;;;5.40;4.83;;;18.20;99.90;;;;;;5038551;28;20474;-55
2022/08/28 00:21:30;;;;;;;7.87;4.70;;;18.20;1.40;;;;;;5041228;28;20522;-55
2022/08/28 00:23:57;;;;;;;7.83;4.93;;;18.10;99.90;;;;;;5049056;28;20560;-55
2022/08/28 00:29:09;;;;;;;6.67;4.83;;;18.10;99.90;;;;;;5049400;28;20583;-54
2022/08/28 00:31:38;;;;;;;10.97;5.33;;;18.10;99.90;;;;;;5051911;28;20454;-54
2022/08/28 00:34:05;;;;;;;9.70;5.10;;;18.00;99.90;;;;;;5054917;28;20461;-55
2022/08/28 00:36:32;;;;;;;7.07;4.80;;;18.00;99.90;;;;;;5051412;28;20486;-55
2022/08/28 00:38:59;;;;;;;5.20;4.20;;;18.00;99.90;;;;;;5053532;28;20928;-55
2022/08/28 00:41:26;;;;;;;10.00;4.70;;;18.00;99.90;;;;;;5052805;28;20450;-55
2022/08/28 00:44:07;;;;;;;6.57;4.33;;;17.90;99.90;;;;;;5044141;28;20488;-55
2022/08/28 00:46:37;;;;;;;9.50;4.40;;;17.80;99.90;;;;;;5054832;28;20535;-55
2022/08/28 00:49:04;;;;;;;8.90;4.57;;;17.80;99.90;;;;;;5053355;28;20947;-55
2022/08/28 00:54:17;;;;;;;7.90;4.03;;;17.80;99.90;;;;;;5050238;28;20588;-55
2022/08/28 00:56:46;;;;;;;6.20;3.60;;;17.80;99.90;;;;;;5054051;28;20481;-55
2022/08/28 00:59:15;;;;;;;9.80;3.87;;;17.70;99.90;;;;;;5055104;28;20449;-54
2022/08/28 01:01:45;;;;;;;13.40;3.70;;;17.70;99.90;;;;;;5052079;28;20488;-54
2022/08/28 01:04:15;;;;;;;7.73;4.20;;;17.70;99.90;;;;;;5053117;28;20461;-55
2022/08/28 01:06:42;;;;;;;7.90;3.60;;;17.60;99.90;;;;;;5050129;28;20504;-54
2022/08/28 01:09:10;;;;;;;8.70;3.30;;;17.70;99.90;;;;;;5051809;28;20609;-55
2022/08/28 01:11:39;;;;;;;4.13;3.13;;;17.60;99.90;;;;;;5052588;28;20868;-55
2022/08/28 01:14:08;;;;;;;8.20;4.40;;;17.60;99.90;;;;;;5050757;28;20458;-55
2022/08/28 01:16:36;;;;;;;7.13;3.53;;;17.60;99.90;;;;;;5051534;28;20481;-55
2022/08/28 01:19:09;;;;;;;6.37;3.93;;;17.60;99.90;;;;;;5053562;28;20454;-55
2022/08/28 01:21:44;;;;;;;4.70;3.20;;;17.60;99.90;;;;;;5047878;28;20461;-53
2022/08/28 01:24:15;;;;;;;8.23;4.50;;;17.60;99.90;;;;;;5052397;28;20441;-55
2022/08/28 01:26:42;;;;;;;7.20;3.97;;;17.60;99.90;;;;;;5052441;28;20477;-55
2022/08/28 01:29:10;;;;;;;10.50;4.67;;;17.60;99.90;;;;;;5051657;28;20464;-54
2022/08/28 01:31:38;;;;;;;10.33;4.93;;;17.60;99.90;;;;;;5043768;28;20464;-55
2022/08/28 01:34:06;;;;;;;6.77;4.37;;;17.60;99.90;;;;;;5051766;28;20496;-54
2022/08/28 01:36:33;;;;;;;10.07;4.23;;;17.50;99.90;;;;;;5051852;28;20485;-55
2022/08/28 01:39:04;;;;;;;9.30;4.60;;;17.60;99.90;;;;;;5047938;28;20978;-54
2022/08/28 01:41:34;;;;;;;8.77;3.80;;;17.60;99.90;;;;;;5052574;28;20457;-54
2022/08/28 01:44:01;;;;;;;11.17;5.30;;;17.60;99.90;;;;;;5052941;28;20507;-55
2022/08/28 01:46:28;;;;;;;5.50;4.57;;;17.60;99.90;;;;;;5051907;28;20487;-55
2022/08/28 01:48:54;;;;;;;8.80;5.00;;;17.60;99.90;;;;;;5051924;28;20490;-55
2022/08/28 01:51:21;;;;;;;7.60;4.90;;;17.60;99.90;;;;;;5050635;28;20541;-54
2022/08/28 01:53:47;;;;;;;11.17;5.30;;;17.60;99.90;;;;;;5052696;28;20516;-55
2022/08/28 01:56:16;;;;;;;13.90;6.23;;;17.60;99.90;;;;;;5052581;28;20482;-55
2022/08/28 01:58:46;;;;;;;6.60;4.97;;;17.60;99.90;;;;;;5034579;28;20447;-55
2022/08/28 02:01:15;;;;;;;14.87;5.90;;;17.60;99.90;;;;;;5048339;28;20461;-55
2022/08/28 02:03:42;;;;;;;10.73;6.17;;;17.60;99.90;;;;;;5050320;28;20531;-55
2022/08/28 02:06:09;;;;;;;9.00;6.00;;;17.60;99.90;;;;;;5050950;28;20486;-55
2022/08/28 02:08:36;;;;;;;6.63;5.70;;;17.60;99.90;;;;;;5052962;28;20462;-55
2022/08/28 02:11:05;;;;;;;8.80;5.73;;;17.60;99.90;;;;;;5043656;28;20462;-55
2022/08/28 02:13:31;;;;;;;11.07;6.17;;;17.60;99.90;;;;;;5044458;28;20458;-55
2022/08/28 02:15:59;;;;;;;15.67;6.73;;;17.60;99.90;;;;;;5048105;28;20477;-55
2022/08/28 02:18:26;;;;;;;7.93;6.07;;;17.60;99.90;;;;;;5049388;28;20513;-55
2022/08/28 02:20:52;;;;;;;9.20;6.67;;;17.60;99.90;;;;;;5047850;28;20468;-55
2022/08/28 02:23:19;;;;;;;13.63;6.10;;;17.60;99.90;;;;;;5052530;28;20531;-55
2022/08/28 02:25:46;;;;;;;10.33;7.13;;;17.60;99.90;;;;;;5050325;28;20587;-56
2022/08/28 02:28:12;;;;;;;11.10;6.97;;;17.60;99.90;;;;;;5048188;28;20520;-55
2022/08/28 02:30:39;;;;;;;13.60;6.80;;;17.60;99.90;;;;;;5049250;28;20507;-54
2022/08/28 02:33:08;;;;;;;10.00;6.33;;;17.60;99.90;;;;;;5050705;28;20454;-54
2022/08/28 02:35:34;;;;;;;7.30;6.20;;;17.60;99.90;;;;;;5049329;28;20511;-55
2022/08/28 02:38:02;;;;;;;10.87;6.90;;;17.60;99.90;;;;;;5048252;28;20454;-54
2022/08/28 02:40:30;;;;;;;14.53;7.20;;;17.60;99.90;;;;;;5051027;28;20821;-55
2022/08/28 02:42:57;;;;;;;12.53;7.80;;;17.60;99.90;;;;;;5049035;28;20488;-55
2022/08/28 02:45:23;;;;;;;13.17;7.23;;;17.60;99.90;;;;;;5050091;28;20466;-54
2022/08/28 02:47:52;;;;;;;9.63;8.33;;;17.60;99.90;;;;;;5049776;28;20481;-54
2022/08/28 02:50:21;;;;;;;14.50;7.60;;;17.50;99.90;;;;;;5050889;28;20461;-54
2022/08/28 02:52:48;;;;;;;26.20;7.70;;;17.50;99.90;;;;;;5049320;28;20956;-55
2022/08/28 02:55:17;;;;;;;12.87;7.70;;;17.50;99.90;;;;;;5050630;28;20458;-54
2022/08/28 02:57:44;;;;;;;11.33;7.13;;;17.50;99.90;;;;;;5051662;28;20462;-55
2022/08/28 03:00:14;;;;;;;9.67;7.50;;;17.50;99.90;;;;;;5046649;28;20516;-54
2022/08/28 03:02:41;;;;;;;11.47;6.90;;;17.50;99.90;;;;;;5041130;28;20572;-55
2022/08/28 03:05:09;;;;;;;9.63;7.20;;;17.40;99.90;;;;;;5049660;28;20511;-55
2022/08/28 03:07:37;;;;;;;11.47;7.10;;;17.40;99.90;;;;;;5041630;28;20987;-54
2022/08/28 03:10:05;;;;;;;9.13;6.40;;;17.40;99.90;;;;;;5048119;28;20458;-55
2022/08/28 03:12:32;;;;;;;10.27;6.37;;;17.50;99.90;;;;;;5049029;28;20450;-55
2022/08/28 03:14:59;;;;;;;11.57;7.40;;;17.40;99.90;;;;;;5048352;28;20529;-54
2022/08/28 03:17:26;;;;;;;10.83;7.10;;;17.40;99.90;;;;;;5046570;28;20474;-54
2022/08/28 03:19:52;;;;;;;12.80;6.50;;;17.40;99.90;;;;;;5046053;28;21014;-56
2022/08/28 03:23:24;;;;;;;11.37;6.60;;;17.40;99.90;;;;;;5046762;28;20454;-54
2022/08/28 03:25:10;;;;;;;15.90;6.57;;;17.40;99.90;;;;;;5049694;28;20450;-55
2022/08/28 03:27:37;;;;;;;15.37;7.03;;;17.30;99.90;;;;;;5050936;28;20873;-54
2022/08/28 03:30:05;;;;;;;10.63;6.90;;;17.30;99.90;;;;;;5050300;28;20461;-55
2022/08/28 03:32:32;;;;;;;8.10;6.40;;;17.30;99.90;;;;;;5046518;28;20457;-54
2022/08/28 03:34:59;;;;;;;8.50;6.47;;;17.30;99.90;;;;;;5049031;28;20987;-54
2022/08/28 03:37:26;;;;;;;10.90;5.83;;;17.30;99.90;;;;;;5045322;28;20489;-55
2022/08/28 03:39:53;;;;;;;15.93;5.40;;;17.30;99.90;;;;;;5049666;28;20535;-55
2022/08/28 03:42:21;;;;;;;9.03;5.80;;;17.20;99.90;;;;;;5048009;28;20898;-54
2022/08/28 03:44:48;;;;;;;10.53;5.77;;;17.20;99.90;;;;;;5051383;28;20484;-55
2022/08/28 03:47:15;;;;;;;8.80;5.20;;;17.20;99.90;;;;;;5049414;28;20485;-55
2022/08/28 03:49:41;;;;;;;10.90;5.70;;;17.20;99.90;;;;;;5050028;28;20877;-55
2022/08/28 03:52:08;;;;;;;9.23;5.53;;;17.20;99.90;;;;;;5044642;28;20458;-54
2022/08/28 03:54:35;;;;;;;9.80;5.67;;;17.10;99.90;;;;;;5047427;28;20443;-56
2022/08/28 03:57:01;;;;;;;8.97;5.33;;;17.10;99.90;;;;;;5041885;28;20888;-54
2022/08/28 03:59:29;;;;;;;6.40;5.20;;;17.10;99.90;;;;;;5050365;28;20446;-55
2022/08/28 04:01:56;;;;;;;6.13;4.80;;;17.10;99.90;;;;;;5044072;28;20465;-55
2022/08/28 04:04:22;;;;;;;12.90;6.03;;;17.00;99.90;;;;;;5049465;28;20888;-54
2022/08/28 04:06:49;;;;;;;11.00;5.57;;;17.00;99.90;;;;;;5042131;28;20486;-55
2022/08/28 04:09:15;;;;;;;17.07;5.03;;;17.00;99.90;;;;;;5048062;28;20457;-55
2022/08/28 04:11:42;;;;;;;6.67;4.93;;;17.00;99.90;;;;;;5046269;28;20507;-55
2022/08/28 04:14:09;;;;;;;7.90;4.40;;;17.00;99.90;;;;;;5044094;28;20894;-54
2022/08/28 04:16:38;;;;;;;13.53;4.70;;;16.90;99.90;;;;;;5046491;28;20477;-55
2022/08/28 04:19:04;;;;;;;11.90;5.37;;;16.90;99.90;;;;;;5048100;28;20458;-55
2022/08/28 04:21:31;;;;;;;11.30;5.87;;;16.90;99.90;;;;;;5046775;28;20470;-55
2022/08/28 04:23:57;;;;;;;14.57;4.80;;;16.90;99.90;;;;;;5049333;28;20545;-55
2022/08/28 04:26:26;;;;;;;12.23;4.90;;;16.80;99.90;;;;;;5045533;28;20485;-55
2022/08/28 04:28:54;;;;;;;13.23;4.90;;;16.80;99.90;;;;;;5041340;28;20457;-54
2022/08/28 04:31:21;;;;;;;11.07;4.47;;;16.80;99.90;;;;;;5043112;28;20453;-54
2022/08/28 04:33:49;;;;;;;13.63;4.97;;;16.70;99.90;;;;;;5048962;28;20454;-54
2022/08/28 04:36:17;;;;;;;14.43;5.17;;;16.70;99.90;;;;;;5044939;28;20519;-55
2022/08/28 04:38:44;;;;;;;8.93;4.10;;;16.70;99.90;;;;;;5046649;28;20515;-50
2022/08/28 04:41:13;;;;;;;11.30;4.03;;;16.70;99.90;;;;;;5043946;28;20545;-50
2022/08/28 04:43:40;;;;;;;13.60;3.97;;;16.60;99.90;;;;;;5047167;28;20481;-50
2022/08/28 04:46:10;;;;;;;12.67;4.63;;;16.60;99.90;;;;;;5047335;28;20531;-50
2022/08/28 04:48:37;;;;;;;10.93;3.70;;;16.60;99.90;;;;;;5049831;28;20458;-50
2022/08/28 04:51:08;;;;;;;13.30;4.30;;;16.60;99.90;;;;;;5045389;28;20462;-49
2022/08/28 04:53:36;;;;;;;9.60;4.20;;;16.50;99.90;;;;;;5049250;28;20819;-50
2022/08/28 04:56:05;;;;;;;8.77;3.97;;;16.50;99.90;;;;;;5045018;28;20473;-50
2022/08/28 04:58:32;;;;;;;12.40;4.30;;;16.50;99.90;;;;;;5044916;28;20455;-50
2022/08/28 05:01:04;;;;;;;9.03;4.10;;;16.50;99.90;;;;;;5046334;28;20553;-50
2022/08/28 05:03:31;;;;;;;10.83;4.00;;;16.40;99.90;;;;;;5049236;28;20539;-49
2022/08/28 05:05:58;;;;;;;11.20;5.23;;;16.40;99.90;;;;;;5046899;28;20489;-51
2022/08/28 05:08:27;;;;;;;9.93;4.10;;;16.40;99.90;;;;;;5048412;28;20454;-49
2022/08/28 05:10:54;;;;;;;6.57;3.57;;;16.40;99.90;;;;;;5046638;28;20458;-50
2022/08/28 05:13:22;;;;;;;13.90;3.67;;;16.30;99.90;;;;;;5051556;28;20450;-50
2022/08/28 05:15:51;;;;;;;11.80;3.87;;;16.30;99.90;;;;;;5050188;28;21806;-50
2022/08/28 05:18:20;;;;;;;6.60;4.00;;;16.30;99.90;;;;;;5053569;28;20935;-50
2022/08/28 05:20:48;;;;;;;8.37;3.30;;;16.30;99.90;;;;;;5049290;28;20461;-50
2022/08/28 05:23:16;;;;;;;12.37;3.63;;;16.30;99.90;;;;;;5050439;28;20511;-51
2022/08/28 05:25:46;;;;;;;11.13;3.00;;;16.20;99.90;;;;;;5051304;28;20531;-51
2022/08/28 05:28:15;;;;;;;11.17;3.27;;;16.20;99.90;;;;;;5053138;28;20819;-49
2022/08/28 05:30:43;;;;;;;10.80;3.00;;;16.10;99.90;;;;;;5049490;28;20462;-50
2022/08/28 05:33:12;;;;;;;15.73;4.43;;;16.10;99.90;;;;;;5052478;28;20457;-50
2022/08/28 05:35:40;;;;;;;14.90;4.40;;;16.10;99.90;;;;;;5050746;28;20531;-51
2022/08/28 05:38:08;;;;;;;9.00;3.47;;;16.00;99.90;;;;;;5052555;28;20939;-50
2022/08/28 05:40:41;;;;;;;9.87;3.63;;;16.00;99.90;;;;;;5051923;28;20470;-50
2022/08/28 05:43:09;;;;;;;14.50;4.50;;;16.00;99.90;;;;;;5050824;28;20981;-51
2022/08/28 05:45:36;;;;;;;16.17;3.80;;;16.00;99.90;;;;;;5052853;28;20951;-51
2022/08/28 05:48:03;;;;;;;14.77;4.30;;;16.00;99.90;;;;;;5049848;28;20461;-51
2022/08/28 05:50:30;;;;;;;15.03;4.00;;;16.00;99.90;;;;;;5052598;28;20948;-50
2022/08/28 05:52:57;;;;;;;11.40;3.60;;;15.90;99.90;;;;;;5049820;28;20457;-50
2022/08/28 05:55:23;;;;;;;8.47;4.77;;;15.90;99.90;;;;;;5047848;28;20454;-50
2022/08/28 05:57:50;;;;;;;10.50;3.80;;;15.90;99.90;;;;;;5052106;28;20477;-51
2022/08/28 06:00:18;;;;;;;14.83;4.33;;;15.90;99.90;;;;;;5050923;28;20995;-51
2022/08/28 06:02:45;;;;;;;9.70;3.80;;;15.90;99.90;;;;;;5050433;28;21354;-50
2022/08/28 06:05:11;;;;;;;12.20;4.57;;;15.80;99.90;;;;;;5050491;28;20492;-50
2022/08/28 06:07:38;;;;;;;12.87;4.27;;;15.80;99.90;;;;;;5048570;28;21086;-50
2022/08/28 06:10:06;;;;;;;27.30;5.00;;;15.80;99.90;;;;;;5051306;28;21022;-50
2022/08/28 06:12:32;;;;;;;11.40;5.57;;;15.80;99.90;;;;;;5049872;28;20458;-50
2022/08/28 06:14:59;;;;;;;15.70;5.13;;;15.70;99.90;;;;;;5051645;28;20450;-50
2022/08/28 06:17:27;;;;;;;9.90;4.40;;;15.70;99.90;;;;;;5050789;28;20498;-50
2022/08/28 06:19:53;;;;;;;10.33;4.10;;;15.70;99.90;;;;;;5051056;28;20620;-50
2022/08/28 06:22:20;;;;;;;15.40;4.13;;;15.70;99.90;;;;;;5046726;28;20456;-50
2022/08/28 06:24:47;;;;;;;9.13;4.60;;;15.60;99.90;;;;;;5050672;28;20216;-51
2022/08/28 06:27:13;;;;;;;10.27;4.57;;;15.60;99.90;;;;;;5049705;28;21068;-51
2022/08/28 06:29:40;;;;;;;9.30;4.20;;;15.60;99.90;;;;;;5049188;28;20515;-51
2022/08/28 06:32:07;;;;;;;16.90;4.80;;;15.60;99.90;;;;;;5045932;28;20458;-50
2022/08/28 06:34:35;;;;;;;15.13;5.47;;;15.70;99.90;;;;;;5048768;28;21231;-51
2022/08/28 06:37:02;;;;;;;13.53;3.97;;;15.70;99.90;;;;;;5046828;28;21196;-50
2022/08/28 06:39:29;;;;;;;12.67;4.80;;;15.70;99.90;;;;;;5049325;28;20872;-51
2022/08/28 06:41:55;;;;;;;9.20;4.37;;;15.70;99.90;;;;;;5050834;28;20462;-51
2022/08/28 06:44:22;;;;;;;13.33;5.20;;;15.70;99.90;;;;;;5048775;28;20900;-51
2022/08/28 06:46:51;;;;;;;12.93;4.50;;;15.60;99.90;;;;;;5049167;28;20482;-51
2022/08/28 06:49:18;;;;;;;11.90;4.30;;;15.60;99.90;;;;;;5046137;28;20619;-51
2022/08/28 06:51:46;;;;;;;10.67;4.57;;;15.60;99.90;;;;;;5048678;28;20457;-51
2022/08/28 06:54:14;;;;;;;10.00;4.40;;;15.60;99.90;;;;;;5050006;28;20507;-50
2022/08/28 06:56:41;;;;;;;9.00;4.30;;;15.60;99.90;;;;;;5048596;28;20481;-51
2022/08/28 06:59:08;;;;;;;13.73;4.90;;;15.70;99.90;;;;;;5050314;28;20659;-50
2022/08/28 07:01:36;;;;;;;12.00;5.20;;;15.60;99.90;;;;;;5047648;28;20508;-50
2022/08/28 07:04:06;;;;;;;7.23;3.93;;;15.60;99.90;;;;;;5048332;28;20481;-50
2022/08/28 07:06:35;;;;;;;12.20;4.30;;;15.70;99.90;;;;;;5048458;28;20983;-50
2022/08/28 07:09:05;;;;;;;8.90;5.10;;;15.80;99.90;;;;;;5043928;28;20820;-50
2022/08/28 07:11:32;;;;;;;9.40;4.53;;;15.80;99.90;;;;;;5046640;28;20553;-55
2022/08/28 07:14:00;;;;;;;15.43;5.50;;;15.90;99.90;;;;;;5048432;28;20458;-50
2022/08/28 07:16:29;;;;;;;11.73;5.90;;;15.90;99.90;;;;;;5048271;28;20486;-50
2022/08/28 07:18:56;;;;;;;19.87;5.47;;;15.90;99.90;;;;;;5042490;28;20461;-51
2022/08/28 07:21:23;;;;;;;14.10;5.40;;;15.80;99.90;;;;;;5049985;28;20482;-51
2022/08/28 07:23:50;;;;;;;13.37;5.90;;;15.90;99.90;;;;;;5050786;28;20458;-50
2022/08/28 07:26:21;;;;;;;11.20;5.30;;;15.90;99.90;;;;;;5045182;28;20532;-50
2022/08/28 07:28:48;;;;;;;16.73;5.10;;;15.90;99.90;;;;;;5050445;28;21170;-50
2022/08/28 07:31:16;;;;;;;16.30;5.77;;;15.90;99.90;;;;;;5047102;28;20465;-50
2022/08/28 07:33:43;;;;;;;13.17;4.97;;;16.00;99.90;;;;;;5049787;28;20892;-50
2022/08/28 07:36:16;;;;;;;13.47;4.83;;;16.00;99.90;;;;;;5047950;28;20519;-51
2022/08/28 07:38:42;;;;;;;15.80;5.40;;;16.00;99.90;;;;;;5050701;28;20473;-50
2022/08/28 07:41:14;;;;;;;14.73;5.87;;;16.00;99.90;;;;;;5047394;28;20466;-50
2022/08/28 07:46:25;;;;;;;13.67;6.53;;;16.00;99.90;;;;;;5024575;28;21068;-50
2022/08/28 07:48:53;;;;;;;17.40;5.87;;;15.90;84.10;;;;;;5049339;28;20457;-50
2022/08/28 07:51:20;;;;;;;12.03;5.30;;;16.00;80.70;;;;;;5048925;28;20458;-50
2022/08/28 07:53:46;;;;;;;17.43;5.80;;;16.00;87.90;;;;;;5048452;28;20461;-50
2022/08/28 07:56:13;;;;;;;12.77;5.27;;;16.00;76.70;;;;;;5048756;28;20482;-50
2022/08/28 07:58:39;;;;;;;18.57;6.00;;;16.00;73.90;;;;;;5050664;28;20462;-50
2022/08/28 08:01:07;;;;;;;14.27;5.93;;;16.00;89.80;;;;;;5048533;28;20474;-50
2022/08/28 08:03:34;;;;;;;18.20;7.10;;;16.10;21.30;;;;;;5049696;28;20458;-50
2022/08/28 08:06:03;;;;;;;20.47;6.80;;;16.00;25.10;;;;;;5046386;28;20482;-51
2022/08/28 08:08:30;;;;;;;12.90;5.83;;;16.00;27.50;;;;;;5049555;28;20515;-50
2022/08/28 08:10:59;;;;;;;12.67;6.33;;;15.90;29.40;;;;;;5048259;28;20484;-50
2022/08/28 08:13:26;;;;;;;16.00;6.70;;;15.90;29.10;;;;;;5049677;28;20465;-51
2022/08/28 08:15:52;;;;;;;16.53;5.80;;;16.00;25.20;;;;;;5045165;28;20528;-50
2022/08/28 08:18:21;;;;;;;11.23;5.47;;;16.00;84.70;;;;;;5049156;28;20457;-50
2022/08/28 08:20:47;;;;;;;13.07;6.77;;;16.00;94.70;;;;;;5048916;28;20967;-50
2022/08/28 08:23:14;;;;;;;16.43;6.77;;;16.00;84.80;;;;;;5049016;28;20474;-50
2022/08/28 08:25:41;;;;;;;14.13;6.53;;;16.00;82.20;;;;;;5048761;28;20560;-51
2022/08/28 08:28:07;;;;;;;11.10;6.53;;;16.00;90.30;;;;;;5049163;28;20461;-50
2022/08/28 08:30:34;;;;;;;22.77;7.77;;;16.00;80.90;;;;;;5049407;28;20513;-51
2022/08/28 08:33:00;;;;;;;16.07;7.07;;;16.00;23.60;;;;;;5044616;28;20466;-51
2022/08/28 08:35:28;;;;;;;16.43;6.90;;;16.00;23.50;;;;;;5047922;28;20523;-51
2022/08/28 08:37:55;;;;;;;15.13;6.63;;;16.00;80.10;;;;;;5050819;28;20477;-51
2022/08/28 08:40:22;;;;;;;12.40;6.63;;;16.10;80.30;;;;;;5049796;28;20458;-50
2022/08/28 08:42:50;;;;;;;12.83;7.13;;;16.10;21.60;;;;;;5048585;28;20461;-51
2022/08/28 08:45:20;;;;;;;16.97;7.67;;;16.00;20.30;;;;;;5049363;28;20528;-50
2022/08/28 08:47:50;;;;;;;16.30;7.73;;;16.00;26.50;;;;;;5051567;28;20854;-50
2022/08/28 08:50:20;;;;;;;15.37;7.87;;;16.00;25.70;;;;;;5053071;28;20449;-50
2022/08/28 08:52:59;;;;;;;22.73;8.57;;;15.90;26.50;;;;;;5052277;28;20453;-50
2022/08/28 08:55:30;;;;;;;16.67;7.37;;;16.00;21.80;;;;;;5052150;28;20460;-50
2022/08/28 08:58:04;;;;;;;20.40;7.73;;;16.10;96.80;;;;;;5051323;28;20473;-50
2022/08/28 09:00:34;;;;;;;14.60;7.40;;;16.10;99.90;;;;;;5047597;28;20461;-51
2022/08/28 09:03:05;;;;;;;15.20;8.60;;;16.00;20.40;;;;;;5053326;28;20454;-51
2022/08/28 09:05:47;;;;;;;19.07;8.23;;;16.10;22.00;;;;;;5053818;28;20550;-50
2022/08/28 09:08:27;;;;;;;17.67;9.50;;;16.10;24.70;;;;;;5052662;28;20468;-50
2022/08/28 09:11:01;;;;;;;15.60;7.80;;;16.10;25.40;;;;;;5051530;28;20960;-50
2022/08/28 09:13:37;;;;;;;18.80;8.73;;;16.00;26.00;;;;;;5054823;28;20454;-51
2022/08/28 09:16:13;;;;;;;13.70;8.53;;;16.00;28.70;;;;;;5045669;28;20534;-51
2022/08/28 09:18:41;;;;;;;17.87;8.60;;;16.10;24.30;;;;;;5053395;28;20457;-50
2022/08/28 09:21:07;;;;;;;14.77;7.20;;;16.10;20.60;;;;;;5052945;28;20461;-50
2022/08/28 09:23:35;;;;;;;18.03;8.37;;;16.10;87.10;;;;;;5052136;28;20511;-50
2022/08/28 09:26:08;;;;;;;15.83;9.07;;;16.10;20.60;;;;;;5051532;28;20485;-50
2022/08/28 09:28:37;;;;;;;21.40;9.13;;;16.10;24.90;;;;;;5050965;28;21254;-51
2022/08/28 09:31:06;;;;;;;19.13;9.20;;;16.10;25.50;;;;;;5051422;28;20449;-51
2022/08/28 09:33:40;;;;;;;19.87;8.80;;;16.20;24.20;;;;;;5050622;28;20488;-51
2022/08/28 09:36:31;;;;;;;16.30;7.53;;;16.10;25.70;;;;;;5051983;28;20481;-50
2022/08/28 09:39:12;;;;;;;15.97;8.77;;;16.10;36.40;;;;;;5046352;28;20464;-51
2022/08/28 09:44:30;;;;;;;19.33;9.30;;;16.00;34.80;;;;;;5048513;28;20452;-51
2022/08/28 09:46:57;;;;;;;18.23;7.70;;;16.10;27.40;;;;;;5050430;28;20485;-50
2022/08/28 09:49:27;;;;;;;17.50;9.20;;;16.10;26.10;;;;;;5050710;28;20968;-50
2022/08/28 09:51:55;;;;;;;17.03;8.60;;;16.20;26.80;;;;;;5046395;28;20730;-50
2022/08/28 09:54:30;;;;;;;16.20;9.67;;;16.20;27.60;;;;;;5050999;28;20980;-50
2022/08/28 09:56:57;;;;;;;18.77;8.63;;;16.20;34.50;;;;;;5046823;28;20485;-50
2022/08/28 09:59:26;;;;;;;20.13;9.50;;;16.20;34.90;;;;;;5047767;28;20997;-50
2022/08/28 10:02:10;;;;;;;15.60;8.43;;;16.30;29.00;;;;;;5046044;28;20467;-51
2022/08/28 10:05:00;;;;;;;14.77;8.53;;;16.40;20.00;;;;;;5050797;28;20458;-50
2022/08/28 10:07:36;;;;;;;16.33;9.07;;;16.40;27.30;;;;;;5049040;28;20469;-50
2022/08/28 10:10:17;;;;;;;19.20;9.57;;;16.40;29.10;;;;;;5051857;28;20515;-49
2022/08/28 10:12:59;;;;;;;18.57;9.60;;;16.50;30.00;;;;;;5050885;28;20461;-50
2022/08/28 10:15:32;;;;;;;18.27;8.20;;;16.40;39.30;;;;;;5050357;28;20464;-50
2022/08/28 10:18:16;;;;;;;23.03;12.20;;;16.50;39.00;;;;;;5050089;28;20482;-50
2022/08/28 10:20:53;;;;;;;19.37;10.63;;;16.50;48.20;;;;;;5050782;28;20458;-50
2022/08/28 10:23:29;;;;;;;17.77;9.77;;;16.40;55.10;;;;;;5050860;28;20462;-50
2022/08/28 10:26:03;;;;;;;15.10;9.27;;;16.50;50.40;;;;;;5049389;28;20570;-50
2022/08/28 10:28:42;;;;;;;21.90;10.53;;;16.40;51.60;;;;;;5051805;28;20457;-50
2022/08/28 10:31:17;;;;;;;19.83;11.20;;;16.50;41.60;;;;;;5046224;28;20458;-51
2022/08/28 10:34:01;;;;;;;13.20;8.17;;;16.50;44.80;;;;;;5052599;28;20434;-51
2022/08/28 10:36:30;;;;;;;16.23;9.83;;;16.50;48.10;;;;;;5051806;28;20572;-51
2022/08/28 10:39:08;;;;;;;13.30;9.60;;;16.50;43.90;;;;;;5111557;22;21044;-54
2022/08/28 10:41:43;;;;;;;17.13;9.07;;;16.50;50.20;;;;;;5085462;28;20525;-53
2022/08/28 10:44:16;;;;;;;14.57;9.80;;;16.50;60.00;;;;;;5091584;28;20455;-52
2022/08/28 10:46:47;;;;;;;17.00;10.10;;;16.40;77.90;;;;;;5095221;28;20480;-51
2022/08/28 10:49:23;;;;;;;18.97;9.57;;;16.40;70.10;;;;;;5109537;28;20519;-50
2022/08/28 10:51:54;;;;;;;17.20;9.87;;;16.40;65.80;;;;;;5122697;27;20491;-51
2022/08/28 10:54:25;;;;;;;16.90;9.60;;;16.40;63.30;;;;;;5106794;27;20530;-51
2022/08/28 10:56:58;;;;;;;19.43;9.60;;;16.40;64.50;;;;;;5105995;28;20460;-51
2022/08/28 10:59:26;;;;;;;14.20;9.43;;;16.30;63.60;;;;;;5106035;28;20528;-51
2022/08/28 11:01:53;;;;;;;10.63;8.43;;;16.30;61.70;;;;;;5114241;27;20466;-51
2022/08/28 11:04:23;;;;;;;16.60;9.87;;;16.30;66.10;;;;;;5110484;27;20455;-50
2022/08/28 11:06:52;;;;;;;13.50;8.70;;;16.30;64.60;;;;;;5108498;28;20485;-50
2022/08/28 11:09:30;;;;;;;11.97;8.53;;;16.30;65.30;;;;;;5108603;28;20596;-51
2022/08/28 11:12:00;;;;;;;11.80;7.87;;;16.40;70.90;;;;;;5107779;27;20536;-52
2022/08/28 11:14:31;;;;;;;15.00;8.90;;;16.30;78.80;;;;;;5115452;27;20470;-51
2022/08/28 11:17:01;;;;;;;12.77;8.63;;;16.30;83.30;;;;;;5112517;27;20995;-51
2022/08/28 11:19:55;;;;;;;9.03;7.50;;;16.30;87.50;;;;;;5108024;28;20561;-51
2022/08/28 11:22:25;;;;;;;14.17;7.77;;;16.30;83.10;;;;;;5110502;27;20463;-52
2022/08/28 11:24:59;;;;;;;10.53;6.87;;;16.40;80.70;;;;;;5115195;27;20454;-51
2022/08/28 11:27:30;;;;;;;13.50;7.80;;;16.40;76.40;;;;;;5104193;27;20479;-52
2022/08/28 11:30:19;;;;;;;12.63;7.97;;;16.40;81.00;;;;;;5105269;27;20448;-52
2022/08/28 11:33:01;;;;;;;10.30;6.70;;;16.40;81.80;;;;;;5088441;28;20449;-51
2022/08/28 11:35:50;;;;;;;12.43;7.20;;;16.40;84.40;;;;;;5108939;27;20455;-51
2022/08/28 11:38:49;;;;;;;11.10;7.60;;;16.50;82.70;;;;;;5107581;28;20544;-52
2022/08/28 11:41:20;;;;;;;10.53;6.70;;;16.50;83.90;;;;;;5109188;27;20470;-52
2022/08/28 11:43:50;;;;;;;12.13;7.37;;;16.50;88.50;;;;;;5108378;28;20516;-52
2022/08/28 11:46:31;;;;;;;11.70;8.23;;;16.50;93.80;;;;;;5107844;28;20518;-51
2022/08/28 11:49:00;;;;;;;9.47;7.17;;;16.50;99.60;;;;;;5106509;27;20470;-51
2022/08/28 11:51:45;;;;;;;11.07;7.13;;;16.50;99.40;;;;;;5107951;27;20977;-51
2022/08/28 11:54:27;;;;;;;13.03;7.30;;;16.50;94.30;;;;;;5112012;27;20488;-52
2022/08/28 11:57:05;;;;;;;11.80;7.40;;;16.60;91.40;;;;;;5108109;28;20820;-52
2022/08/28 11:59:53;;;;;;;9.30;7.20;;;16.60;88.60;;;;;;5108630;28;21004;-51
2022/08/28 12:02:53;;;;;;;12.80;7.30;;;16.70;82.20;;;;;;5110590;27;20508;-52
2022/08/28 12:05:46;;;;;;;15.17;7.30;;;16.70;78.60;;;;;;5111830;27;20448;-52
2022/08/28 12:08:29;;;;;;;12.07;7.70;;;16.80;84.40;;;;;;5113720;27;20482;-52
2022/08/28 12:10:57;;;;;;;11.30;6.83;;;16.70;86.20;;;;;;5117512;27;20459;-52
2022/08/28 12:13:47;;;;;;;11.93;8.00;;;16.80;85.90;;;;;;5109038;27;21485;-52
2022/08/28 12:16:15;;;;;;;13.07;7.00;;;16.80;93.80;;;;;;5108430;28;20508;-51
2022/08/28 12:19:01;;;;;;;11.77;6.87;;;16.90;96.80;;;;;;5110392;28;20540;-52
2022/08/28 12:21:30;;;;;;;14.30;8.73;;;16.90;99.90;;;;;;5106661;28;20512;-52
2022/08/28 12:24:01;;;;;;;18.70;7.33;;;17.00;99.90;;;;;;5106919;28;20474;-51
2022/08/28 12:26:34;;;;;;;15.70;8.03;;;17.00;99.90;;;;;;5107171;28;21008;-51
2022/08/28 12:29:03;;;;;;;9.83;7.83;;;17.00;99.90;;;;;;5107623;28;20546;-51
2022/08/28 12:32:14;;;;;;;24.00;7.97;;;17.00;99.90;;;;;;5104689;28;20464;-52
2022/08/28 12:35:15;;;;;;;15.73;7.80;;;17.00;99.90;;;;;;5112716;28;20459;-52
2022/08/28 12:37:44;;;;;;;12.30;7.77;;;17.00;99.90;;;;;;5100264;27;20478;-52
2022/08/28 12:40:18;;;;;;;12.27;7.20;;;17.00;99.90;;;;;;5110313;28;20463;-51
2022/08/28 12:42:51;;;;;;;11.73;7.73;;;17.10;99.90;;;;;;5108437;28;20463;-52
2022/08/28 12:45:22;;;;;;;10.60;7.30;;;17.10;99.90;;;;;;5108899;28;20459;-52
2022/08/28 12:47:53;;;;;;;12.00;7.83;;;17.20;99.90;;;;;;5109955;28;21027;-52
2022/08/28 12:50:26;;;;;;;9.70;5.93;;;17.20;99.90;;;;;;5108951;28;21058;-52
2022/08/28 12:52:55;;;;;;;12.60;6.13;;;17.20;99.90;;;;;;5109476;28;20451;-52
2022/08/28 12:55:23;;;;;;;11.60;5.87;;;17.20;99.90;;;;;;5105668;28;20876;-52
2022/08/28 12:57:50;;;;;;;6.50;4.70;;;17.20;1.40;;;;;;5109999;28;20524;-51
2022/08/28 13:00:19;;;;;;;7.40;5.23;;;17.30;99.90;;;;;;5101463;28;20467;-51
2022/08/28 13:02:48;;;;;;;6.70;4.90;;;17.30;99.90;;;;;;5105707;28;20463;-52
2022/08/28 13:05:30;;;;;;;8.50;4.87;;;17.30;99.90;;;;;;5108726;28;20480;-51
2022/08/28 13:07:59;;;;;;;9.63;5.57;;;17.40;99.90;;;;;;5105864;28;20470;-51